createdAt,value
2018-09-20T00:00:08.090Z,18.03
2018-09-20T00:02:37.809Z,21.83
2018-09-20T00:05:06.990Z,15.97
2018-09-20T00:07:36.120Z,19.30
2018-09-20T00:10:06.011Z,17.80
2018-09-20T00:12:35.354Z,21.27
2018-09-20T00:15:04.486Z,14.90
2018-09-20T00:17:33.630Z,20.20
2018-09-20T00:20:03.502Z,19.63
2018-09-20T00:22:32.622Z,15.87
2018-09-20T00:25:01.767Z,19.77
2018-09-20T00:27:30.861Z,16.40
2018-09-20T00:30:00.697Z,19.80
2018-09-20T00:32:30.785Z,27.97
2018-09-20T00:34:59.901Z,20.03
2018-09-20T00:37:29.062Z,20.70
2018-09-20T00:39:58.199Z,17.20
2018-09-20T00:42:27.826Z,18.60
2018-09-20T00:44:56.999Z,17.57
2018-09-20T00:47:32.837Z,20.87
2018-09-20T00:50:02.013Z,15.53
2018-09-20T00:52:31.201Z,19.00
2018-09-20T00:55:00.641Z,16.73
2018-09-20T00:57:31.193Z,22.17
2018-09-20T01:00:06.190Z,19.57
2018-09-20T01:02:35.323Z,17.63
2018-09-20T01:05:04.459Z,23.70
2018-09-20T01:07:34.374Z,17.53
2018-09-20T01:10:03.485Z,16.77
2018-09-20T01:12:32.626Z,16.40
2018-09-20T01:15:01.749Z,17.60
2018-09-20T01:17:30.858Z,16.43
2018-09-20T01:19:59.982Z,19.63
2018-09-20T01:22:29.126Z,19.23
2018-09-20T01:24:58.287Z,25.07
2018-09-20T01:27:27.430Z,21.23
2018-09-20T01:29:57.122Z,16.67
2018-09-20T01:32:26.233Z,18.67
2018-09-20T01:34:55.386Z,17.90
2018-09-20T01:37:25.012Z,25.90
2018-09-20T01:39:55.786Z,20.63
2018-09-20T01:42:24.982Z,19.70
2018-09-20T01:44:54.286Z,22.40
2018-09-20T01:47:23.917Z,19.03
2018-09-20T01:49:53.073Z,16.70
2018-09-20T01:52:22.201Z,24.23
2018-09-20T01:54:51.390Z,22.23
2018-09-20T01:57:20.702Z,23.83
2018-09-20T01:59:49.958Z,17.03
2018-09-20T02:02:19.605Z,20.97
2018-09-20T02:04:48.846Z,22.17
2018-09-20T02:07:18.083Z,22.20
2018-09-20T02:09:47.318Z,22.00
2018-09-20T02:12:16.243Z,21.23
2018-09-20T02:14:45.529Z,18.83
2018-09-20T02:17:14.705Z,20.13
2018-09-20T02:19:43.881Z,19.50
2018-09-20T02:22:12.969Z,20.40
2018-09-20T02:24:42.222Z,24.40
2018-09-20T02:27:11.362Z,22.73
2018-09-20T02:29:40.871Z,19.90
2018-09-20T02:32:10.028Z,18.03
2018-09-20T02:34:39.201Z,24.10
2018-09-20T02:37:08.374Z,21.77
2018-09-20T02:39:37.537Z,20.20
2018-09-20T02:42:06.715Z,19.20
2018-09-20T02:44:35.843Z,21.23
2018-09-20T02:47:05.041Z,24.07
2018-09-20T02:49:34.250Z,22.17
2018-09-20T02:52:04.170Z,20.93
2018-09-20T02:54:34.041Z,21.00
2018-09-20T02:57:04.074Z,22.57
2018-09-20T02:59:33.207Z,21.73
2018-09-20T03:02:02.874Z,22.77
2018-09-20T03:04:32.207Z,20.87
2018-09-20T03:07:01.458Z,23.40
2018-09-20T03:09:30.666Z,24.00
2018-09-20T03:12:00.284Z,26.77
2018-09-20T03:14:30.091Z,20.50
2018-09-20T03:16:59.285Z,19.33
2018-09-20T03:19:28.622Z,26.37
2018-09-20T03:21:57.821Z,24.13
2018-09-20T03:24:26.959Z,28.17
2018-09-20T03:26:56.137Z,20.20
2018-09-20T03:29:25.293Z,21.00
2018-09-20T03:31:54.442Z,25.07
2018-09-20T03:34:23.579Z,24.07
2018-09-20T03:36:52.709Z,27.80
2018-09-20T03:39:21.881Z,26.70
2018-09-20T03:41:51.022Z,22.77
2018-09-20T03:44:20.173Z,22.47
2018-09-20T03:46:49.289Z,19.57
2018-09-20T03:49:18.644Z,22.70
2018-09-20T03:51:49.030Z,23.50
2018-09-20T03:54:18.163Z,28.97
2018-09-20T03:56:47.282Z,21.10
2018-09-20T03:59:16.475Z,24.20
2018-09-20T04:01:46.005Z,24.80
2018-09-20T04:04:15.055Z,28.17
2018-09-20T04:06:44.425Z,26.43
2018-09-20T04:09:13.582Z,27.20
2018-09-20T04:11:42.706Z,22.73
2018-09-20T04:14:11.810Z,23.07
2018-09-20T04:16:42.166Z,26.93
2018-09-20T04:19:11.293Z,34.00
2018-09-20T04:21:40.678Z,28.53
2018-09-20T04:24:09.830Z,29.03
2018-09-20T04:26:39.087Z,23.63
2018-09-20T04:29:08.234Z,26.27
2018-09-20T04:31:37.453Z,29.13
2018-09-20T04:34:06.554Z,26.90
2018-09-20T04:36:35.730Z,27.43
2018-09-20T04:39:07.914Z,27.23
2018-09-20T04:41:37.466Z,30.63
2018-09-20T04:44:06.626Z,29.90
2018-09-20T04:46:36.554Z,27.80
2018-09-20T04:49:05.722Z,29.37
2018-09-20T04:51:34.957Z,25.43
2018-09-20T04:54:04.118Z,33.13
2018-09-20T04:56:33.250Z,38.47
2018-09-20T04:59:02.378Z,24.97
2018-09-20T05:01:31.862Z,25.43
2018-09-20T05:04:01.858Z,26.80
2018-09-20T05:06:30.538Z,28.67
2018-09-20T05:09:00.110Z,25.20
2018-09-20T05:11:29.234Z,23.00
2018-09-20T05:13:58.354Z,23.73
2018-09-20T05:16:27.550Z,25.97
2018-09-20T05:18:57.234Z,32.47
2018-09-20T05:21:26.383Z,20.33
2018-09-20T05:23:56.262Z,23.60
2018-09-20T05:26:25.387Z,25.33
2018-09-20T05:28:54.563Z,20.40
2018-09-20T05:31:23.759Z,23.83
2018-09-20T05:33:52.887Z,23.53
2018-09-20T05:36:22.874Z,21.53
2018-09-20T05:38:52.134Z,20.53
2018-09-20T05:41:21.474Z,26.50
2018-09-20T05:43:50.723Z,22.00
2018-09-20T05:46:19.850Z,28.17
2018-09-20T05:48:49.040Z,20.20
2018-09-20T05:51:18.182Z,21.33
2018-09-20T05:53:47.463Z,28.40
2018-09-20T05:56:16.639Z,22.70
2018-09-20T05:58:45.790Z,17.27
2018-09-20T06:01:15.001Z,20.70
2018-09-20T06:03:44.146Z,25.53
2018-09-20T06:06:14.380Z,16.63
2018-09-20T06:08:44.282Z,21.87
2018-09-20T06:11:13.466Z,18.23
2018-09-20T06:13:49.339Z,17.63
2018-09-20T06:16:18.881Z,19.97
2018-09-20T06:18:48.366Z,18.73
2018-09-20T06:21:17.895Z,15.03
2018-09-20T06:23:47.885Z,17.90
2018-09-20T06:26:17.620Z,23.47
2018-09-20T06:28:46.983Z,20.17
2018-09-20T06:31:16.081Z,18.13
2018-09-20T06:33:45.229Z,15.70
2018-09-20T06:36:14.410Z,16.47
2018-09-20T06:38:43.553Z,16.60
2018-09-20T06:41:12.906Z,16.83
2018-09-20T06:43:42.028Z,17.83
2018-09-20T06:46:11.197Z,24.87
2018-09-20T06:48:40.313Z,15.93
2018-09-20T06:51:09.446Z,17.47
2018-09-20T06:53:39.110Z,22.93
2018-09-20T06:56:08.283Z,21.37
2018-09-20T06:58:37.521Z,19.10
2018-09-20T07:01:07.354Z,22.30
2018-09-20T07:03:37.132Z,26.07
2018-09-20T07:06:06.498Z,15.87
2018-09-20T07:08:35.809Z,23.73
2018-09-20T07:11:04.590Z,21.97
2018-09-20T07:13:33.760Z,17.40
2018-09-20T07:16:02.867Z,20.37
2018-09-20T07:18:32.586Z,16.40
2018-09-20T07:21:01.766Z,17.83
2018-09-20T07:23:30.888Z,18.53
2018-09-20T07:26:00.031Z,16.37
2018-09-20T07:28:29.166Z,15.90
2018-09-20T07:30:58.987Z,15.73
2018-09-20T07:33:28.100Z,17.10
2018-09-20T07:35:57.262Z,15.00
2018-09-20T07:38:26.410Z,21.20
2018-09-20T07:40:55.603Z,14.87
2018-09-20T07:43:24.765Z,14.47
2018-09-20T07:45:53.865Z,19.30
2018-09-20T07:48:23.325Z,22.23
2018-09-20T07:50:52.749Z,17.77
2018-09-20T07:53:22.075Z,17.90
2018-09-20T07:55:51.210Z,13.83
2018-09-20T07:58:20.397Z,14.17
2018-09-20T08:00:49.833Z,13.67
2018-09-20T08:03:18.954Z,14.97
2018-09-20T08:05:48.822Z,14.03
2018-09-20T08:08:18.754Z,14.63
2018-09-20T08:10:48.098Z,12.63
2018-09-20T08:13:17.329Z,14.00
2018-09-20T08:15:46.489Z,14.60
2018-09-20T08:18:15.697Z,17.33
2018-09-20T08:20:45.185Z,15.40
2018-09-20T08:23:14.378Z,15.40
2018-09-20T08:25:43.621Z,14.93
2018-09-20T08:28:12.861Z,16.77
2018-09-20T08:30:41.994Z,15.47
2018-09-20T08:33:11.190Z,18.50
2018-09-20T08:35:40.389Z,22.80
2018-09-20T08:38:09.504Z,18.13
2018-09-20T08:40:38.626Z,17.20
2018-09-20T08:43:07.781Z,22.40
2018-09-20T08:45:36.912Z,15.50
2018-09-20T08:48:06.206Z,20.10
2018-09-20T08:50:35.334Z,23.50
2018-09-20T08:53:04.459Z,17.47
2018-09-20T08:55:33.616Z,13.77
2018-09-20T08:58:03.043Z,17.10
2018-09-20T09:00:32.177Z,23.53
2018-09-20T09:03:01.326Z,16.43
2018-09-20T09:05:30.450Z,15.97
2018-09-20T09:08:00.266Z,14.77
2018-09-20T09:10:30.591Z,26.70
2018-09-20T09:12:59.806Z,16.43
2018-09-20T09:15:29.103Z,14.87
2018-09-20T09:17:59.075Z,14.90
2018-09-20T09:20:28.254Z,15.20
2018-09-20T09:22:57.367Z,18.37
2018-09-20T09:25:26.495Z,12.20
2018-09-20T09:27:56.343Z,11.23
2018-09-20T09:30:25.469Z,13.10
2018-09-20T09:32:54.597Z,12.17
2018-09-20T09:35:24.329Z,11.10
2018-09-20T09:37:53.536Z,13.50
2018-09-20T09:40:22.654Z,13.33
2018-09-20T09:42:51.839Z,18.63
2018-09-20T09:45:21.032Z,14.90
2018-09-20T09:47:50.174Z,11.77
2018-09-20T09:50:19.314Z,10.43
2018-09-20T09:52:48.817Z,10.77
2018-09-20T09:55:17.946Z,10.00
2018-09-20T09:57:53.889Z,12.00
2018-09-20T10:00:28.210Z,11.23
2018-09-20T10:03:02.245Z,12.20
2018-09-20T10:05:31.373Z,10.80
2018-09-20T10:08:00.506Z,11.60
2018-09-20T10:10:29.249Z,15.00
2018-09-20T10:12:58.445Z,16.60
2018-09-20T10:15:27.549Z,10.53
2018-09-20T10:17:56.683Z,11.17
2018-09-20T10:20:25.906Z,12.67
2018-09-20T10:22:55.013Z,12.47
2018-09-20T10:25:24.162Z,11.67
2018-09-20T10:27:53.402Z,15.47
2018-09-20T10:30:22.535Z,14.60
2018-09-20T10:32:51.674Z,14.07
2018-09-20T10:35:20.841Z,10.60
2018-09-20T10:37:49.970Z,13.27
2018-09-20T10:40:19.117Z,14.10
2018-09-20T10:42:48.281Z,10.47
2018-09-20T10:45:17.398Z,12.53
2018-09-20T10:47:46.497Z,14.43
2018-09-20T10:50:15.666Z,10.47
2018-09-20T10:52:44.771Z,11.10
2018-09-20T10:55:13.930Z,10.23
2018-09-20T10:57:43.061Z,11.83
2018-09-20T11:00:12.506Z,12.10
2018-09-20T11:02:41.702Z,9.90
2018-09-20T11:05:10.818Z,11.00
2018-09-20T11:07:40.457Z,11.90
2018-09-20T11:10:09.655Z,12.33
2018-09-20T11:12:38.894Z,11.17
2018-09-20T11:15:08.767Z,15.30
2018-09-20T11:17:38.076Z,10.70
2018-09-20T11:20:07.979Z,10.13
2018-09-20T11:22:37.379Z,14.03
2018-09-20T11:25:06.910Z,14.80
2018-09-20T11:27:36.221Z,13.33
2018-09-20T11:30:06.574Z,13.13
2018-09-20T11:32:35.978Z,8.80
2018-09-20T11:35:05.118Z,11.67
2018-09-20T11:37:34.651Z,9.87
2018-09-20T11:40:04.118Z,12.63
2018-09-20T11:42:33.762Z,10.20
2018-09-20T11:45:02.931Z,9.83
2018-09-20T11:47:32.474Z,9.80
2018-09-20T11:50:01.671Z,9.40
2018-09-20T11:52:30.834Z,12.60
2018-09-20T11:55:00.017Z,9.80
2018-09-20T11:57:29.137Z,11.53
2018-09-20T11:59:58.286Z,7.90
2018-09-20T12:02:27.544Z,9.73
2018-09-20T12:04:56.706Z,11.53
2018-09-20T12:07:25.846Z,8.47
2018-09-20T12:09:54.974Z,9.23
2018-09-20T12:12:24.210Z,8.23
2018-09-20T12:14:53.602Z,16.80
2018-09-20T12:17:22.694Z,10.33
2018-09-20T12:19:51.825Z,7.70
2018-09-20T12:22:20.914Z,10.97
2018-09-20T12:24:50.049Z,7.87
2018-09-20T12:27:19.166Z,11.00
2018-09-20T12:29:48.949Z,8.20
2018-09-20T12:32:18.173Z,7.80
2018-09-20T12:34:47.273Z,8.97
2018-09-20T12:37:16.944Z,8.73
2018-09-20T12:39:46.077Z,7.37
2018-09-20T12:42:15.295Z,9.67
2018-09-20T12:44:44.486Z,8.60
2018-09-20T12:47:13.725Z,9.87
2018-09-20T12:49:42.850Z,9.13
2018-09-20T12:52:11.978Z,12.60
2018-09-20T12:54:41.412Z,14.07
2018-09-20T12:57:10.469Z,11.80
2018-09-20T12:59:39.644Z,8.23
2018-09-20T13:02:08.869Z,10.93
2018-09-20T13:04:38.058Z,9.03
2018-09-20T13:07:07.666Z,8.93
2018-09-20T13:09:36.794Z,9.80
2018-09-20T13:12:05.981Z,9.23
2018-09-20T13:14:35.126Z,7.30
2018-09-20T13:17:05.118Z,8.90
2018-09-20T13:19:35.242Z,9.23
2018-09-20T13:22:04.375Z,8.57
2018-09-20T13:24:33.490Z,11.77
2018-09-20T13:27:02.654Z,9.70
2018-09-20T13:29:31.793Z,8.70
2018-09-20T13:32:01.232Z,8.10
2018-09-20T13:34:30.421Z,8.83
2018-09-20T13:36:59.532Z,9.13
2018-09-20T13:39:28.681Z,7.97
2018-09-20T13:41:58.225Z,8.13
2018-09-20T13:44:27.362Z,8.40
2018-09-20T13:46:56.678Z,9.80
2018-09-20T13:49:26.054Z,12.20
2018-09-20T13:51:55.214Z,8.30
2018-09-20T13:54:24.358Z,10.40
2018-09-20T13:56:53.446Z,8.23
2018-09-20T13:59:22.582Z,10.20
2018-09-20T14:01:51.846Z,10.77
2018-09-20T14:04:21.142Z,8.50
2018-09-20T14:06:51.602Z,7.53
2018-09-20T14:09:21.009Z,11.97
2018-09-20T14:11:50.142Z,9.40
2018-09-20T14:14:19.302Z,8.20
2018-09-20T14:16:49.114Z,9.33
2018-09-20T14:19:18.230Z,8.10
2018-09-20T14:21:47.394Z,8.20
2018-09-20T14:24:16.511Z,8.30
2018-09-20T14:26:45.638Z,10.10
2018-09-20T14:29:14.826Z,9.43
2018-09-20T14:31:43.992Z,7.90
2018-09-20T14:34:13.259Z,9.20
2018-09-20T14:36:42.771Z,11.03
2018-09-20T14:39:12.150Z,8.23
2018-09-20T14:41:42.525Z,9.60
2018-09-20T14:44:11.651Z,8.00
2018-09-20T14:46:40.782Z,14.90
2018-09-20T14:49:09.940Z,9.80
2018-09-20T14:51:39.197Z,10.30
2018-09-20T14:54:08.354Z,8.63
2018-09-20T14:56:37.639Z,11.73
2018-09-20T14:59:06.945Z,6.70
2018-09-20T15:01:36.074Z,9.73
2018-09-20T15:04:05.290Z,10.90
2018-09-20T15:06:34.410Z,8.13
2018-09-20T15:09:04.445Z,8.50
2018-09-20T15:11:35.046Z,8.43
2018-09-20T15:14:04.821Z,8.87
2018-09-20T15:16:33.965Z,9.03
2018-09-20T15:19:03.690Z,10.90
2018-09-20T15:21:32.863Z,9.50
2018-09-20T15:24:02.290Z,10.50
2018-09-20T15:26:31.442Z,8.07
2018-09-20T15:29:01.062Z,9.70
2018-09-20T15:31:30.191Z,10.20
2018-09-20T15:33:59.338Z,10.30
2018-09-20T15:36:28.501Z,10.30
2018-09-20T15:38:57.612Z,8.17
2018-09-20T15:41:26.814Z,8.60
2018-09-20T15:43:55.953Z,8.53
2018-09-20T15:46:25.573Z,10.80
2018-09-20T15:48:54.705Z,8.30
2018-09-20T15:51:23.937Z,12.17
2018-09-20T15:53:53.580Z,8.90
2018-09-20T15:56:23.719Z,10.23
2018-09-20T15:58:53.678Z,10.27
2018-09-20T16:01:22.966Z,9.67
2018-09-20T16:03:52.541Z,9.37
2018-09-20T16:06:21.842Z,8.63
2018-09-20T16:08:51.012Z,8.83
2018-09-20T16:11:20.161Z,11.00
2018-09-20T16:13:49.281Z,11.50
2018-09-20T16:16:18.778Z,8.13
2018-09-20T16:18:49.458Z,11.00
2018-09-20T16:21:18.945Z,14.40
2018-09-20T16:23:48.159Z,15.00
2018-09-20T16:26:17.289Z,13.27
2018-09-20T16:29:00.014Z,7.87
2018-09-20T16:34:23.400Z,15.03
2018-09-20T16:37:42.390Z,10.90
2018-09-20T16:40:23.665Z,8.40
2018-09-20T16:42:52.836Z,10.10
2018-09-20T16:45:21.973Z,10.23
2018-09-20T16:47:51.137Z,9.50
2018-09-20T16:50:20.289Z,13.03
2018-09-20T16:52:49.425Z,10.30
2018-09-20T16:55:18.565Z,12.33
2018-09-20T16:57:48.406Z,11.00
2018-09-20T17:00:17.880Z,9.77
2018-09-20T17:02:47.414Z,13.10
2018-09-20T17:05:16.638Z,11.83
2018-09-20T17:07:45.706Z,11.90
2018-09-20T17:10:14.853Z,14.27
2018-09-20T17:12:43.971Z,13.50
2018-09-20T17:15:13.244Z,21.07
2018-09-20T17:17:42.828Z,16.43
2018-09-20T17:20:11.950Z,13.83
2018-09-20T17:22:41.726Z,14.73
2018-09-20T17:25:10.866Z,15.90
2018-09-20T17:27:40.022Z,26.90
2018-09-20T17:30:09.174Z,15.83
2018-09-20T17:32:39.234Z,12.80
2018-09-20T17:35:08.726Z,11.60
2018-09-20T17:37:43.697Z,16.40
2018-09-20T17:40:13.634Z,12.00
2018-09-20T17:42:45.030Z,11.90
2018-09-20T17:45:14.178Z,13.77
2018-09-20T17:47:43.305Z,18.77
2018-09-20T17:50:12.511Z,14.63
2018-09-20T17:52:43.179Z,19.20
2018-09-20T17:55:14.107Z,13.00
2018-09-20T17:57:44.274Z,12.57
2018-09-20T18:00:13.382Z,9.90
2018-09-20T18:02:42.558Z,14.27
2018-09-20T18:05:11.698Z,11.27
2018-09-20T18:07:40.823Z,11.63
2018-09-20T18:10:10.165Z,11.90
2018-09-20T18:12:39.330Z,11.67
2018-09-20T18:15:08.551Z,17.87
2018-09-20T18:17:37.731Z,13.63
2018-09-20T18:20:07.261Z,12.30
2018-09-20T18:22:36.570Z,11.60
2018-09-20T18:25:06.009Z,9.30
2018-09-20T18:27:35.489Z,11.57
2018-09-20T18:30:06.274Z,13.67
2018-09-20T18:32:35.395Z,9.20
2018-09-20T18:35:04.658Z,10.20
2018-09-20T18:37:35.424Z,14.50
2018-09-20T18:40:04.578Z,12.33
2018-09-20T18:42:33.844Z,13.23
2018-09-20T18:45:03.262Z,11.77
2018-09-20T18:47:32.423Z,9.10
2018-09-20T18:50:01.718Z,13.00
2018-09-20T18:52:30.849Z,11.13
2018-09-20T18:54:59.973Z,11.83
2018-09-20T18:57:29.153Z,15.80
2018-09-20T18:59:58.718Z,16.40
2018-09-20T19:02:27.947Z,12.33
2018-09-20T19:04:57.150Z,9.50
2018-09-20T19:07:26.325Z,12.70
2018-09-20T19:09:55.881Z,12.23
2018-09-20T19:12:25.260Z,11.70
2018-09-20T19:14:54.609Z,19.40
2018-09-20T19:17:24.385Z,20.33
2018-09-20T19:19:53.843Z,19.97
2018-09-20T19:22:23.929Z,21.63
2018-09-20T19:24:53.702Z,16.23
2018-09-20T19:27:22.820Z,12.87
2018-09-20T19:29:51.978Z,18.80
2018-09-20T19:32:21.126Z,11.57
2018-09-20T19:34:50.850Z,14.13
2018-09-20T19:37:19.982Z,11.80
2018-09-20T19:39:49.126Z,14.50
2018-09-20T19:42:18.278Z,11.13
2018-09-20T19:44:47.396Z,12.80
2018-09-20T19:47:17.029Z,21.97
2018-09-20T19:49:46.824Z,12.80
2018-09-20T19:52:18.892Z,14.50
2018-09-20T19:54:48.053Z,17.83
2018-09-20T19:57:17.454Z,16.03
2018-09-20T19:59:46.573Z,14.90
2018-09-20T20:02:15.770Z,12.80
2018-09-20T20:04:44.973Z,12.20
2018-09-20T20:07:14.122Z,14.23
2018-09-20T20:09:43.241Z,18.93
2018-09-20T20:12:12.402Z,15.87
2018-09-20T20:14:42.909Z,14.07
2018-09-20T20:17:12.101Z,18.07
2018-09-20T20:19:41.321Z,20.80
2018-09-20T20:22:10.465Z,17.10
2018-09-20T20:24:40.902Z,17.50
2018-09-20T20:27:09.693Z,15.30
2018-09-20T20:29:39.187Z,18.80
2018-09-20T20:32:08.400Z,16.10
2018-09-20T20:34:37.514Z,15.83
2018-09-20T20:37:07.579Z,16.63
2018-09-20T20:39:36.888Z,18.07
2018-09-20T20:42:05.782Z,18.90
2018-09-20T20:44:35.481Z,17.77
2018-09-20T20:47:04.673Z,19.00
2018-09-20T20:49:33.878Z,17.83
2018-09-20T20:52:03.034Z,16.60
2018-09-20T20:54:32.190Z,27.23
2018-09-20T20:57:01.722Z,23.60
2018-09-20T20:59:30.845Z,14.30
2018-09-20T21:02:00.795Z,15.30
2018-09-20T21:04:29.970Z,20.07
2018-09-20T21:06:59.162Z,14.67
2018-09-20T21:09:28.966Z,25.30
2018-09-20T21:11:58.471Z,17.00
2018-09-20T21:14:27.456Z,16.30
2018-09-20T21:16:56.990Z,18.80
2018-09-20T21:19:26.350Z,14.83
2018-09-20T21:21:55.489Z,20.43
2018-09-20T21:24:25.161Z,14.63
2018-09-20T21:26:54.340Z,16.20
2018-09-20T21:29:23.454Z,15.33
2018-09-20T21:31:52.626Z,20.67
2018-09-20T21:34:21.793Z,16.63
2018-09-20T21:36:51.282Z,17.40
2018-09-20T21:39:20.403Z,13.57
2018-09-20T21:41:49.554Z,19.90
2018-09-20T21:44:18.938Z,20.13
2018-09-20T21:46:48.762Z,17.67
2018-09-20T21:49:18.609Z,15.50
2018-09-20T21:51:48.565Z,16.23
2018-09-20T21:54:17.819Z,20.27
2018-09-20T21:56:47.075Z,18.10
2018-09-20T21:59:16.596Z,15.07
2018-09-20T22:01:51.826Z,16.13
2018-09-20T22:04:21.106Z,20.43
2018-09-20T22:06:50.525Z,18.67
2018-09-20T22:09:20.721Z,16.10
2018-09-20T22:11:50.261Z,16.67
2018-09-20T22:14:20.161Z,14.90
2018-09-20T22:16:50.126Z,15.23
2018-09-20T22:19:20.153Z,17.73
2018-09-20T22:21:49.433Z,17.30
2018-09-20T22:24:18.557Z,25.73
2018-09-20T22:26:47.966Z,18.53
2018-09-20T22:29:17.210Z,24.23
2018-09-20T22:31:46.523Z,22.70
2018-09-20T22:34:15.817Z,21.67
2018-09-20T22:36:45.014Z,17.20
2018-09-20T22:39:14.193Z,16.60
2018-09-20T22:41:44.330Z,18.80
2018-09-20T22:44:13.646Z,20.27
2018-09-20T22:46:42.779Z,16.27
2018-09-20T22:49:41.672Z,21.63
2018-09-20T22:52:10.833Z,16.83
2018-09-20T22:54:40.062Z,24.93
2018-09-20T22:57:09.229Z,23.13
2018-09-20T22:59:38.349Z,39.57
2018-09-20T23:02:07.482Z,16.67
2018-09-20T23:04:36.649Z,18.00
2018-09-20T23:07:06.598Z,22.60
2018-09-20T23:09:35.817Z,22.73
2018-09-20T23:12:05.005Z,21.07
2018-09-20T23:14:34.672Z,34.00
2018-09-20T23:17:03.814Z,20.37
2018-09-20T23:19:32.922Z,22.27
2018-09-20T23:22:02.991Z,22.00
2018-09-20T23:24:32.139Z,20.37
2018-09-20T23:27:01.269Z,20.50
2018-09-20T23:29:30.558Z,19.17
2018-09-20T23:31:59.761Z,21.00
2018-09-20T23:34:29.094Z,18.60
2018-09-20T23:36:58.385Z,20.73
2018-09-20T23:39:27.595Z,20.63
2018-09-20T23:41:56.733Z,25.33
2018-09-20T23:44:25.867Z,22.87
2018-09-20T23:46:55.014Z,21.43
2018-09-20T23:49:24.335Z,21.73
2018-09-20T23:51:54.174Z,22.97
2018-09-20T23:54:24.085Z,23.17
2018-09-20T23:56:53.207Z,27.20
2018-09-20T23:59:22.326Z,19.83
